Date,TemperatureHighF,TemperatureAvgF,TemperatureLowF,DewpointHighF,DewpointAvgF,DewpointLowF,HumidityHigh,HumidityAvg,HumidityLow,PressureMaxIn,PressureMinIn,WindSpeedMaxMPH,WindSpeedAvgMPH,GustSpeedMaxMPH,PrecipitationSumIn
2013-1-1,44,28,39,40,-6,-100,88,57,82,29.77,29.23,15,-314,26,0.00
2013-1-2,54,35,43,52,2,-100,94,62,87,29.96,29.74,14,-314,23,0.00
2013-1-3,56,39,50,53,9,-100,93,65,86,30.21,29.96,11,-268,21,0.00
2013-1-4,52,37,45,48,10,-100,95,67,84,30.24,30.13,11,-246,18,0.00
2013-1-5,53,37,44,50,7,-100,95,65,85,30.13,30.02,21,-272,32,0.00
2013-1-6,53,18,48,48,-50,-100,92,26,59,30.13,29.88,17,-650,29,0.00
2013-1-7,54,24,53,51,-31,-100,91,41,88,29.88,29.68,23,-536,30,0.00
2013-1-8,49,27,40,46,-17,-100,92,52,86,29.94,29.67,9,-413,14,0.00
2013-1-9,53,31,34,42,4,-100,92,65,57,29.92,29.73,4,-227,5,0.00
2013-1-10,58,19,32,54,-38,-100,94,39,72,29.73,29.59,9,-552,15,0.04
2013-1-11,64,28,42,48,-13,-100,95,53,56,29.73,29.47,14,-387,18,0.02
2013-1-12,44,14,42,42,-54,-100,95,30,86,29.74,29.44,15,-671,17,0.02
2013-1-13,39,13,38,37,-53,-100,94,31,79,29.84,29.74,10,-654,17,0.02
2013-1-14,42,23,35,39,-20,-100,93,53,79,29.78,29.56,21,-401,22,0.00
2013-1-15,41,31,34,36,8,-100,94,69,82,29.62,29.42,12,-195,19,0.00
2013-1-16,42,12,39,39,-58,-100,92,26,78,29.54,29.40,10,-693,22,0.09
2013-1-17,55,28,42,53,-13,-100,94,53,79,29.54,29.21,17,-386,36,0.01
2013-1-18,41,15,36,39,-47,-100,94,36,87,29.20,28.91,19,-606,35,0.09
2013-1-19,36,20,34,33,-26,-100,94,49,77,29.27,28.97,9,-433,14,0.01
2013-1-20,36,10,34,32,-61,-100,88,25,77,29.26,29.06,11,-700,18,0.01
2013-1-21,35,11,33,35,-57,-100,97,31,95,29.07,29.01,5,-676,9,0.17
2013-1-22,44,12,31,41,-54,-100,95,32,87,29.43,29.05,3,-651,4,0.03
2013-1-23,44,23,37,42,-19,-100,93,52,81,29.53,29.39,8,-392,15,0.00
2013-1-24,42,29,-90,38,4,-100,90,67,78,29.68,29.54,21,-220,25,0.00
2013-1-25,46,31,40,46,0,-100,98,66,83,29.59,29.02,29,-285,44,0.23
2013-1-26,54,32,39,51,-2,-100,97,62,82,29.39,28.66,29,-314,43,0.13
2013-1-27,52,25,36,51,-11,-100,97,58,77,29.15,28.66,33,-336,39,0.00
2013-1-28,51,34,36,47,4,-100,97,61,70,29.21,28.79,33,-254,51,0.00
2013-1-29,57,32,45,53,-6,-100,97,56,80,29.13,28.82,25,-349,43,0.00
2013-1-30,49,28,42,42,-14,-100,86,49,69,29.50,29.03,32,-374,45,0.00
2013-1-31,50,37,40,44,16,-100,96,68,72,29.45,29.20,25,-157,42,0.03
2013-2-1,44,32,36,41,5,-100,91,63,71,29.58,29.12,22,-218,32,0.03
2013-2-2,43,27,35,36,-10,-100,91,51,63,29.96,29.59,12,-323,17,0.00
2013-2-3,50,38,40,48,18,-100,97,75,84,29.84,29.52,20,-180,30,0.02
2013-2-4,50,28,43,48,-16,-100,95,49,72,29.62,29.52,22,-388,36,0.00
2013-2-6,43,38,34,35,28,-100,88,74,66,29.97,29.79,22,-28,26,0.00
2013-2-7,44,22,35,42,-23,-100,94,51,85,29.97,29.61,20,-426,31,0.09
2013-2-8,46,18,40,43,-42,-100,90,37,87,29.98,29.89,12,-587,14,0.00
2013-2-9,49,28,44,45,-14,-100,94,53,83,29.90,29.38,9,-394,17,0.01
2013-2-10,44,17,41,43,-44,-100,97,38,93,29.38,28.91,11,-601,20,0.42
2013-2-11,66,13,38,57,-60,-100,92,23,47,29.51,28.95,9,-711,9,0.00
2013-2-12,45,24,40,44,-19,-100,96,52,85,29.68,29.51,13,-408,19,0.00
2013-2-13,54,22,48,50,-38,-100,93,38,87,29.66,29.35,24,-578,27,0.01
2013-2-14,49,29,42,43,-10,-100,91,53,73,29.73,29.38,17,-357,27,0.00
2013-2-15,48,38,41,42,20,-100,93,71,71,29.82,29.74,13,-133,17,0.00
2013-2-16,54,39,43,48,16,-100,93,67,75,29.79,29.72,23,-184,30,0.00
2013-2-17,48,36,42,42,10,-100,86,63,75,29.73,29.64,17,-200,28,0.00
2013-2-18,47,34,40,38,8,-100,84,60,62,29.77,29.66,12,-198,19,0.00
2013-2-19,52,36,34,42,20,-100,91,71,61,29.78,29.71,11,-114,18,0.00
2013-2-20,72,36,35,62,17,-100,96,68,34,29.84,29.74,18,-130,24,0.00
2013-2-21,39,29,35,33,4,-100,80,61,70,29.87,29.82,19,-184,26,0.00
2013-2-22,35,20,33,27,-26,-100,73,41,67,29.93,29.84,13,-410,20,0.00
2013-2-23,35,12,33,32,-53,-100,91,30,77,30.02,29.92,9,-640,11,0.00
2013-2-24,41,23,32,33,-16,-100,87,53,73,30.16,30.02,4,-357,6,0.00
2013-2-25,57,33,32,50,13,-100,95,69,69,30.26,30.14,11,-146,12,0.00
2013-2-26,41,34,37,38,17,-100,92,75,80,30.34,30.22,16,-142,17,0.00
2013-2-27,54,26,38,52,-14,-100,92,54,74,30.35,30.29,10,-370,14,0.00
2013-2-28,60,22,38,54,-28,-100,95,44,67,30.30,30.18,7,-488,10,0.00
2013-3-1,52,28,36,52,-11,-100,98,52,71,30.19,30.16,12,-344,16,0.00
2013-3-2,45,36,35,37,20,-100,90,71,68,30.16,29.98,7,-114,9,0.00
2013-3-3,45,31,38,38,2,-100,88,59,68,29.98,29.74,10,-248,14,0.00
2013-3-4,43,36,34,36,20,-100,89,72,71,29.73,29.42,10,-101,14,0.00
2013-3-5,47,33,31,41,7,-100,93,65,65,29.41,29.25,14,-216,17,0.00
2013-3-6,48,25,41,44,-19,-100,96,52,87,29.25,29.14,14,-432,18,0.00
2013-3-7,47,16,45,46,-50,-100,97,33,93,29.14,28.98,13,-649,19,0.09
2013-3-8,52,31,46,49,-6,-100,99,61,85,29.18,28.95,13,-358,19,0.00
2013-3-9,46,22,40,45,-28,-100,98,49,97,29.39,29.17,16,-491,20,0.03
2013-3-10,38,15,35,34,-49,-100,86,29,58,29.61,29.39,29,-597,38,0.00
2013-3-11,34,22,29,31,-16,-100,93,45,54,29.76,29.61,25,-303,32,0.00
2013-3-12,50,34,30,42,15,-100,88,62,46,29.78,29.68,15,-89,22,0.00
2013-3-13,44,28,33,40,-3,-100,92,60,67,29.77,29.66,14,-267,16,0.01
2013-3-14,46,36,32,43,27,-100,96,82,79,29.78,29.42,17,-59,22,0.05
2013-3-15,47,34,36,40,13,-100,96,69,68,29.41,29.04,19,-169,28,0.04
2013-3-16,45,35,32,37,24,-100,92,78,61,29.04,28.96,10,-68,13,0.01
2013-3-17,42,32,34,39,16,-100,95,79,87,29.00,28.81,13,-134,16,0.13
2013-3-18,43,27,35,38,-6,-100,97,61,78,29.14,28.87,15,-304,19,0.09
2013-3-19,58,24,33,56,-15,-100,97,57,58,29.22,29.14,10,-368,12,0.27
2013-3-20,71,26,34,64,-13,-100,98,55,72,29.57,29.22,11,-367,14,0.01
2013-3-21,41,27,37,38,-4,-100,96,63,81,29.57,29.26,33,-288,36,0.00
2013-3-22,41,23,38,39,-20,-100,98,55,91,29.37,29.17,26,-410,37,0.10
2013-3-23,38,17,36,36,-38,-100,96,41,85,29.61,29.38,16,-537,25,0.00
2013-3-24,35,15,34,29,-44,-100,83,35,78,29.74,29.60,22,-558,29,0.00
2013-3-25,37,24,35,27,-14,-100,73,46,64,29.79,29.75,24,-310,29,0.00
2013-3-26,36,29,32,31,9,-100,93,67,67,29.79,29.71,19,-144,28,0.00
2013-3-27,45,30,30,42,15,-100,96,76,69,29.71,29.68,17,-111,30,0.06
2013-3-28,39,33,30,31,20,-100,96,71,60,29.70,29.61,18,-50,26,0.02
2013-3-29,38,33,34,28,14,-100,69,59,59,29.61,29.52,17,-78,24,0.00
2013-3-30,40,36,34,27,22,-100,71,61,53,29.65,29.55,13,-17,20,0.00
2013-3-31,39,36,37,30,21,-100,75,64,60,29.64,29.52,18,-47,23,0.00
2013-4-1,39,29,35,30,-1,-100,75,54,65,29.63,29.52,21,-214,28,0.00
2013-4-2,42,25,33,34,-17,-100,75,43,56,29.84,29.64,16,-353,24,0.00
2013-4-3,43,39,33,34,30,26,88,71,55,29.91,29.84,18,7,23,0.00
2013-4-4,43,39,31,38,30,23,88,73,46,29.90,29.86,20,6,23,0.00
2013-4-5,59,38,32,53,24,-100,95,69,56,29.98,29.87,13,-54,20,0.00
2013-4-6,47,39,30,35,31,26,88,75,60,30.03,29.91,13,3,18,0.00
2013-4-7,44,41,34,37,34,30,87,76,61,29.91,29.51,16,6,23,0.00
2013-4-8,45,39,38,37,25,-100,89,71,69,29.48,29.19,21,-65,27,0.00
2013-4-9,44,37,37,39,26,-100,88,78,77,29.31,29.17,17,-64,28,0.00
2013-4-10,55,41,38,53,34,-100,95,85,79,29.32,29.16,11,-40,14,0.01
2013-4-11,49,33,42,46,5,-100,97,69,85,29.16,28.96,11,-261,16,0.34
2013-4-12,52,38,40,43,18,-100,97,71,65,29.38,28.97,15,-167,15,0.05
2013-4-13,58,45,38,53,37,-100,94,83,74,29.39,29.09,25,-41,36,0.01
2013-4-14,57,47,46,52,30,-100,97,73,73,29.22,29.09,35,-113,46,2.36
2013-4-15,60,51,47,48,40,-100,96,75,54,29.50,29.18,31,-23,40,1.41
2013-4-16,57,47,47,48,27,-100,95,57,42,29.61,29.16,25,-75,46,4.45
2013-4-17,57,52,47,53,47,36,96,84,63,29.59,28.92,32,13,46,3.80
2013-4-18,52,44,43,44,33,-100,97,79,67,29.80,28.98,29,-51,46,6.45
2013-4-19,56,45,40,42,33,-100,92,71,47,30.15,29.82,13,-38,16,0.00
2013-4-20,57,49,42,43,40,37,83,71,54,30.16,29.91,20,7,22,0.00
2013-4-21,54,40,43,44,19,-100,95,67,62,29.90,29.64,19,-152,24,0.07
2013-4-22,59,50,44,52,46,40,93,84,70,29.67,29.50,21,10,36,0.33
2013-4-23,62,54,47,52,47,43,94,78,64,29.81,29.64,19,8,24,0.01
2013-4-24,59,40,46,52,13,-100,96,66,74,29.93,29.71,20,-239,30,0.17
2013-4-25,54,32,43,44,-8,-100,98,50,60,29.90,29.79,14,-343,20,0.03
2013-4-26,48,43,37,39,35,30,91,76,53,29.86,29.73,17,9,29,0.02
2013-4-27,50,45,38,39,36,34,87,72,53,29.88,29.79,12,5,16,0.00
2013-4-28,52,44,42,47,34,-100,94,76,63,29.81,29.54,22,-34,29,0.01
2013-4-29,53,46,40,43,37,32,87,72,47,29.94,29.61,22,11,30,0.01
2013-4-30,54,47,39,41,37,32,89,70,48,30.05,29.95,9,4,14,0.00
2013-5-1,57,46,42,45,27,-100,91,64,46,30.00,29.93,11,-89,18,0.00
2013-5-2,59,50,39,45,42,36,90,73,56,29.99,29.82,14,3,17,0.00
2013-5-3,59,50,48,50,37,-100,93,73,67,29.83,29.55,17,-57,27,0.14
2013-5-4,59,49,46,51,36,-100,91,72,53,29.69,29.51,18,-45,27,0.10
2013-5-5,62,56,52,51,49,46,91,78,61,29.79,29.68,19,7,25,0.02
2013-5-6,64,52,50,51,35,-100,84,67,59,29.78,29.68,14,-79,19,0.00
2013-5-7,63,55,46,50,47,43,90,75,54,29.72,29.38,21,5,24,0.00
2013-5-8,61,47,46,53,36,-100,97,81,55,29.37,29.00,21,-75,39,0.57
2013-5-9,53,48,44,49,44,38,97,86,72,29.27,28.89,28,14,39,0.69
2013-5-10,54,44,44,50,26,-100,96,69,47,29.43,29.27,19,-111,32,0.13
2013-5-11,51,46,43,46,42,38,95,83,67,29.65,29.38,23,9,33,0.22
2013-5-12,57,49,43,51,45,38,92,84,67,29.67,29.48,24,10,32,0.16
2013-5-13,49,43,42,42,33,-100,87,75,62,29.54,29.42,28,-34,39,0.20
2013-5-14,55,46,40,42,38,35,89,75,51,29.41,29.06,16,6,21,0.00
2013-5-15,51,45,41,42,39,36,90,79,65,29.25,29.12,19,7,28,0.06
2013-5-16,52,45,39,43,40,34,90,82,66,29.32,29.16,10,3,12,0.12
2013-5-17,54,47,37,45,41,35,94,80,61,29.62,29.33,13,3,17,0.00
2013-5-18,52,47,44,47,41,-100,94,83,71,29.62,29.43,13,-16,19,0.00
2013-5-19,61,40,50,50,6,-100,91,53,62,29.73,29.48,10,-282,12,0.00
2013-5-20,57,47,53,53,30,-100,92,75,81,29.84,29.72,13,-135,19,0.00
2013-5-21,62,38,47,50,2,-100,90,53,65,29.88,29.82,13,-303,19,0.00
2013-5-22,54,48,46,50,34,-100,95,68,56,29.95,29.88,19,-46,24,0.01
2013-5-23,50,46,40,41,37,34,88,72,55,29.89,29.78,19,9,32,0.01
2013-5-24,55,45,42,39,29,-100,85,63,50,29.91,29.73,21,-57,23,0.00
2013-5-25,62,53,41,46,42,37,87,68,47,29.92,29.84,11,2,13,0.00
2013-5-26,62,54,49,49,44,-100,93,72,51,29.87,29.46,17,-16,25,0.01
2013-5-27,56,51,46,49,46,42,95,83,62,29.45,29.13,21,7,30,0.61
2013-5-28,55,50,44,47,44,41,92,79,66,29.38,29.20,10,4,13,0.03
2013-5-29,66,54,48,53,42,-100,96,72,55,29.70,29.37,18,-36,21,0.32
2013-5-30,67,59,50,51,48,44,82,67,50,29.84,29.69,19,7,26,0.00
2013-5-31,59,54,48,53,47,40,94,79,61,29.98,29.84,14,4,18,0.00
2013-6-1,58,49,46,51,36,-100,89,73,64,30.09,29.98,13,-60,18,0.02
2013-6-2,62,52,-90,52,40,-100,89,72,64,30.16,30.08,9,-41,11,0.00
2013-6-3,64,53,-90,56,38,-100,91,71,62,30.19,30.14,8,-81,10,0.00
2013-6-4,65,58,48,55,48,40,90,72,46,30.15,29.96,11,4,15,0.00
2013-6-5,62,57,48,53,48,42,87,72,59,29.96,29.82,14,4,19,0.00
2013-6-6,61,56,49,52,50,46,92,79,66,29.94,29.84,12,4,15,0.00
2013-6-7,66,59,50,55,51,47,93,74,57,29.98,29.94,11,4,15,0.00
2013-6-8,65,59,50,56,50,45,85,73,58,29.98,29.80,10,3,12,0.00
2013-6-9,68,61,50,52,46,41,84,61,39,29.80,29.64,13,4,16,0.00
2013-6-10,64,58,54,51,48,44,90,70,57,29.64,29.50,18,4,24,0.02
2013-6-11,67,51,51,60,36,-100,92,76,74,29.50,29.33,13,-111,22,0.09
2013-6-12,60,49,53,55,34,-100,98,78,72,29.40,29.23,10,-117,11,0.16
2013-6-13,60,41,48,54,10,-100,98,59,59,29.59,29.23,20,-255,25,0.09
2013-6-14,63,54,48,53,49,45,97,84,65,29.59,29.09,24,8,33,0.41
2013-6-15,63,54,46,55,48,42,93,80,53,29.42,29.20,19,8,28,0.13
2013-6-16,62,54,51,51,50,47,97,84,61,29.64,29.43,11,4,20,0.13
2013-6-17,59,47,50,54,31,-100,100,78,78,29.73,29.64,8,-133,12,0.09
2013-6-18,70,60,48,57,52,47,94,79,58,29.70,29.64,11,3,14,0.00
2013-6-19,66,59,52,54,50,47,88,72,57,29.77,29.71,14,4,16,0.00
2013-6-20,67,61,53,56,51,48,84,72,58,29.72,29.48,11,3,17,0.00
2013-6-21,66,52,53,57,35,-100,96,71,56,29.55,29.28,16,-111,26,0.04
2013-6-22,60,53,51,55,44,-100,97,81,73,29.30,29.12,17,-45,32,0.42
2013-6-23,57,54,51,52,49,45,92,84,69,29.85,29.30,28,11,30,0.06
2013-6-24,60,54,48,49,47,44,92,77,60,29.98,29.86,12,5,20,0.00
2013-6-25,65,57,52,55,43,-100,85,69,60,30.13,29.98,8,-52,15,0.00
2013-6-26,64,56,54,54,40,-100,88,67,59,30.20,30.13,11,-59,14,0.00
2013-6-27,64,51,52,62,36,-100,95,77,76,30.18,29.95,13,-114,20,0.09
2013-6-28,63,27,55,59,-28,-100,96,42,86,29.95,29.83,13,-534,25,0.01
2013-9-2,70,64,61,62,57,-100,91,82,78,30.05,30.01,12,-21,22,0.00
2013-9-3,72,60,58,59,44,-100,92,68,50,30.03,29.89,13,-70,15,0.00
2013-9-4,73,59,55,54,40,-100,86,61,43,29.89,29.63,16,-71,18,0.00
2013-9-5,62,53,51,55,37,-100,90,68,51,29.68,29.59,12,-69,15,0.00
2013-9-6,60,47,45,48,31,-100,94,71,53,29.62,29.55,10,-92,18,0.00
2013-9-7,51,42,46,47,26,-100,97,79,79,29.59,29.54,16,-130,25,0.00
2013-9-8,58,44,47,50,24,-100,98,71,71,29.67,29.57,10,-153,20,0.00
2013-9-9,62,51,43,52,42,-100,97,78,62,29.94,29.66,13,-39,21,0.00
2013-9-10,60,46,49,52,25,-100,93,68,68,30.04,29.94,14,-162,16,0.00
2013-9-11,62,43,51,61,17,-100,100,71,87,30.04,29.84,13,-240,21,0.00
2013-9-12,65,42,56,63,9,-100,98,64,90,29.84,29.68,13,-318,20,0.00
2013-9-13,56,38,51,53,6,-100,94,58,70,29.83,29.77,6,-279,9,0.00
2013-9-14,60,38,47,48,-1,-100,90,47,50,29.83,29.72,10,-310,12,0.00
2013-9-15,61,51,47,60,39,-100,98,74,50,29.72,29.16,24,-52,42,0.62
2013-9-16,53,46,46,45,35,-100,87,74,66,29.35,29.26,25,-43,34,0.08
2013-9-17,51,46,48,51,36,-100,98,85,76,29.34,29.07,15,-71,22,0.10
2013-9-18,55,38,47,49,7,-100,98,59,66,29.58,29.20,19,-261,25,0.00
2013-9-19,61,52,49,56,40,-100,98,75,68,29.62,29.27,25,-55,37,0.12
2013-9-20,61,50,50,50,32,-100,81,66,64,29.77,29.63,10,-104,17,0.00
2013-9-21,73,60,56,64,48,-100,92,76,70,29.92,29.73,14,-69,22,0.00
2013-9-22,71,59,60,61,45,-100,91,74,68,30.01,29.92,9,-80,17,0.00
2013-9-23,74,59,53,64,47,-100,97,78,66,29.96,29.75,7,-71,10,0.00
2013-9-24,67,52,55,61,39,-100,100,83,81,29.75,29.60,8,-114,9,0.01
2013-9-25,59,32,56,59,-14,-100,99,54,97,29.61,29.55,7,-447,11,0.00
2013-9-26,61,29,58,58,-25,-100,97,43,84,29.67,29.60,10,-519,13,0.00
2013-9-27,65,39,54,60,1,-100,99,54,77,29.67,29.54,9,-356,11,0.00
2013-9-28,63,53,55,57,38,-100,97,77,74,29.53,29.42,10,-102,12,0.00
2013-9-29,61,44,55,54,15,-100,92,61,66,29.43,29.40,13,-242,21,0.00
2013-9-30,59,41,55,57,10,-100,94,64,85,29.40,29.33,12,-282,18,0.00
2013-10-1,60,35,56,58,-5,-100,98,58,92,29.36,29.31,16,-388,22,0.11
2013-10-2,66,50,58,62,30,-100,100,74,84,29.30,29.27,16,-174,24,0.20
2013-10-3,64,36,59,60,-8,-100,98,52,87,29.31,29.20,12,-423,24,1.18
2013-10-4,61,36,54,57,-2,-100,96,57,85,29.64,29.23,12,-366,16,0.00
2013-10-5,66,51,52,56,33,-100,93,71,70,29.86,29.64,11,-124,17,0.00
2013-10-6,67,57,57,62,45,-100,93,78,72,29.85,29.80,16,-77,24,0.00
2013-10-7,66,54,61,61,35,-100,92,72,77,29.83,29.74,18,-143,28,0.00
2013-10-8,62,51,54,58,36,-100,93,75,74,29.99,29.79,15,-113,22,0.00
2013-10-9,54,42,43,51,22,-100,91,67,62,29.99,29.87,19,-150,35,0.00
2013-10-10,52,42,39,45,24,-100,90,69,59,30.08,29.95,13,-102,17,0.00
2013-10-11,54,42,41,50,23,-100,89,72,74,30.09,30.05,20,-153,22,0.00
2013-10-12,53,24,49,51,-31,-100,90,40,82,30.04,29.86,13,-534,20,0.00
2013-10-13,52,30,48,48,-13,-100,92,51,77,29.86,29.66,9,-404,11,0.00
2013-10-14,55,42,46,53,22,-100,96,73,77,29.66,29.57,10,-166,16,0.07
2013-10-15,63,38,45,63,9,-100,98,64,76,29.59,29.54,14,-260,21,0.00
2013-10-16,59,38,-90,59,10,-100,98,66,83,29.53,29.23,22,-255,25,0.00
2013-10-17,61,47,50,55,28,-100,93,72,78,29.57,29.41,10,-157,15,0.00
2013-10-18,58,32,51,56,-12,-100,100,54,85,29.57,29.16,22,-422,38,0.00
2013-10-19,62,35,54,56,-7,-100,93,52,77,29.16,29.11,18,-393,26,0.00
2013-10-20,59,48,52,53,30,-100,92,75,78,29.23,28.98,20,-134,26,0.00
2013-10-21,64,34,-90,59,-5,-100,98,57,85,29.24,28.90,15,-368,29,0.04
2013-10-22,62,36,56,57,-6,-100,93,52,78,28.91,28.73,17,-391,22,0.20
2013-10-23,57,43,46,54,24,-100,97,70,64,29.44,28.74,20,-142,27,0.00
2013-10-24,60,43,46,54,21,-100,96,71,78,29.52,29.32,14,-192,23,0.04
2013-10-25,61,45,53,56,22,-100,97,71,79,29.31,29.04,17,-201,23,0.41
2013-10-26,57,44,49,53,27,-100,98,76,75,29.21,28.89,23,-139,36,0.10
2013-10-27,54,44,48,51,26,-100,98,74,80,28.88,28.74,23,-142,35,0.20
2013-10-28,52,39,46,47,15,-100,92,68,73,29.27,28.71,20,-195,27,0.00
2013-10-29,50,39,42,44,18,-100,92,69,74,29.70,29.28,18,-163,25,0.00
2013-10-30,58,41,44,55,19,-100,97,71,74,29.70,29.40,25,-183,38,0.00
2013-10-31,55,40,47,49,19,-100,98,71,74,29.64,29.45,17,-178,27,0.00
2013-11-1,51,38,41,45,15,-100,91,69,76,29.46,29.29,10,-188,17,0.00
2013-11-2,52,35,40,46,10,-100,97,68,75,29.29,28.68,31,-211,39,0.00
2013-11-3,49,33,38,42,4,-100,92,62,74,29.20,28.97,15,-252,25,0.00
2013-11-4,48,34,37,45,8,-100,92,64,69,29.14,28.96,10,-220,19,0.00
2013-11-5,49,34,46,46,1,-100,93,60,78,29.08,28.88,17,-292,29,0.00
2013-11-6,49,26,43,47,-20,-100,96,51,90,29.25,29.05,10,-446,14,0.08
2013-11-7,50,31,44,43,-7,-100,86,53,73,29.32,29.25,22,-337,27,0.00
2013-11-8,48,34,39,41,9,-100,89,66,74,29.34,29.27,13,-210,20,0.02
2013-11-9,46,35,38,41,14,-100,94,71,79,29.42,29.28,13,-174,18,0.00
2013-11-10,53,33,38,51,1,-100,93,59,61,29.79,29.43,19,-278,29,0.02
2013-11-11,57,36,50,56,2,-100,96,61,86,29.87,29.56,17,-314,22,0.00
2013-11-12,50,35,44,46,6,-100,90,61,73,30.22,29.87,18,-251,21,0.00
2013-11-13,50,38,42,47,16,-100,97,69,74,30.22,29.78,26,-180,35,0.00
2013-11-14,48,30,43,42,-9,-100,87,53,73,30.30,29.85,16,-349,22,0.00
2013-11-15,50,33,45,46,-3,-100,86,57,82,30.30,30.19,9,-323,15,0.00
2013-11-16,51,34,50,49,0,-100,95,60,82,30.19,30.08,13,-315,18,0.00
2013-11-17,54,40,50,52,15,-100,98,71,88,30.07,29.64,11,-228,17,0.02
2013-11-18,51,26,36,49,-11,-100,96,58,83,29.65,29.59,13,-358,20,0.03
2013-11-19,42,29,33,39,1,-100,94,65,79,29.83,29.63,17,-239,27,0.00
2013-11-20,45,32,39,42,2,-100,92,60,70,29.63,29.39,23,-243,39,0.00
2013-11-21,42,17,36,37,-42,-100,88,33,70,29.82,29.55,19,-561,19,0.00
2013-11-22,46,24,35,45,-14,-100,94,54,79,30.00,29.83,5,-364,5,0.00
2013-11-23,43,31,32,42,5,-100,95,70,89,30.13,30.00,8,-239,10,0.00
2013-11-24,46,13,43,43,-58,-100,95,26,86,30.36,30.13,4,-704,8,0.00
2013-11-25,46,26,43,40,-17,-100,87,49,71,30.47,30.36,6,-402,10,0.00
2013-11-26,47,28,44,44,-14,-100,90,52,84,30.47,30.36,12,-395,15,0.00
2013-11-27,48,9,46,45,-72,-100,91,17,85,30.36,30.30,12,-804,14,0.00
2013-11-28,50,29,47,48,-12,-100,97,56,86,30.33,30.23,7,-398,17,0.01
2013-11-29,47,16,46,45,-50,-100,93,30,83,30.23,30.07,17,-644,24,0.00
2013-12-5,50,22,42,46,-33,-100,94,38,74,30.04,29.75,28,-518,43,0.00
2013-12-6,48,28,45,45,-13,-100,95,55,87,30.07,30.02,12,-392,18,0.00
2013-12-7,48,31,44,44,-5,-100,92,59,87,30.02,29.83,13,-332,22,0.00
2013-12-8,52,32,45,48,-6,-100,91,55,85,29.85,29.77,28,-356,30,0.00
2013-12-9,53,32,49,46,-11,-100,86,47,70,29.92,29.84,15,-376,29,0.00
2013-12-10,56,40,53,51,11,-100,89,61,68,29.90,29.83,19,-249,34,0.00
2013-12-11,54,21,50,51,-40,-100,89,33,77,29.92,29.69,20,-586,27,0.00
2013-12-12,59,34,56,56,-8,-100,90,52,85,29.69,29.56,23,-398,36,0.00
2013-12-13,57,30,40,52,-9,-100,89,52,70,29.73,29.42,20,-348,28,0.00
2013-12-14,51,18,40,51,-44,-100,98,35,76,29.73,29.23,43,-607,56,0.00
2013-12-15,54,30,45,51,-13,-100,98,51,71,29.63,29.29,30,-403,45,0.02
2013-12-16,48,27,40,47,-11,-100,97,54,79,29.77,29.30,17,-353,28,0.00
2013-12-17,48,31,40,43,-6,-100,84,50,68,29.82,29.37,25,-300,39,0.00
2013-12-18,55,22,48,52,-36,-100,97,36,77,29.37,28.52,28,-558,41,0.01
2013-12-19,39,22,35,37,-19,-100,97,55,84,29.40,28.85,19,-396,31,0.01
2013-12-20,51,32,36,50,0,-100,98,64,82,29.57,29.23,39,-297,56,0.00
2013-12-21,49,26,39,45,-15,-100,98,55,79,29.34,29.07,19,-390,37,0.13
2013-12-22,38,22,34,36,-18,-100,98,58,87,29.40,29.17,23,-384,33,0.01
2013-12-23,51,21,37,50,-34,-100,98,40,77,29.34,28.10,24,-535,38,0.00
2013-12-24,42,24,37,39,-17,-100,97,52,63,28.44,28.12,28,-377,46,0.00
2013-12-25,45,26,36,36,-14,-100,88,51,68,28.84,28.43,18,-356,20,0.00
2013-12-26,48,30,37,48,1,-100,98,64,77,29.07,28.20,33,-264,58,0.00
2013-12-27,46,18,38,44,-42,-100,97,39,80,28.77,28.07,37,-576,47,0.00
2013-12-28,42,24,37,38,-17,-100,91,53,82,29.41,28.77,13,-384,22,0.00
2013-12-29,50,33,37,49,3,-100,98,62,74,29.58,29.14,32,-262,38,0.00
2013-12-30,50,28,41,49,-11,-100,98,55,78,29.34,28.97,22,-367,33,0.00
2013-12-31,49,33,38,45,6,-100,98,66,73,29.13,28.87,27,-234,42,0.00
2014-1-1,50,22,41,50,-31,-100,98,45,84,28.96,28.33,25,-511,40,0.00
2014-1-2,48,28,42,47,-14,-100,97,51,73,28.86,28.54,23,-387,38,0.00